createdAt,value
2023-12-08T00:00:53.394Z,6.75
2023-12-08T00:06:08.378Z,5.00
2023-12-08T00:11:15.198Z,5.67
2023-12-08T00:16:19.233Z,7.00
2023-12-08T00:21:23.582Z,7.00
2023-12-08T00:26:27.564Z,6.50
2023-12-08T00:31:31.290Z,6.00
2023-12-08T00:36:35.349Z,6.00
2023-12-08T00:41:39.210Z,7.00
2023-12-08T00:46:43.876Z,6.67
2023-12-08T00:51:48.407Z,7.75
2023-12-08T00:56:52.793Z,5.75
2023-12-08T01:01:56.417Z,6.00
2023-12-08T01:07:00.927Z,5.50
2023-12-08T01:12:05.870Z,6.00
2023-12-08T01:17:11.079Z,5.75
2023-12-08T01:22:15.383Z,7.00
2023-12-08T01:27:20.768Z,5.67
2023-12-08T01:32:24.795Z,6.50
2023-12-08T01:37:28.847Z,8.00
2023-12-08T01:42:32.744Z,6.00
2023-12-08T01:47:37.145Z,9.00
2023-12-08T01:52:41.283Z,4.50
2023-12-08T01:57:45.332Z,6.25
2023-12-08T02:02:49.895Z,6.50
2023-12-08T02:07:55.514Z,6.00
2023-12-08T02:12:59.403Z,5.75
2023-12-08T02:18:03.593Z,5.75
2023-12-08T02:23:07.521Z,6.00
2023-12-08T02:28:11.268Z,6.75
2023-12-08T02:33:40.968Z,6.67
2023-12-08T02:38:45.418Z,7.00
2023-12-08T02:43:50.028Z,6.50
2023-12-08T02:48:55.185Z,5.25
2023-12-08T02:54:00.512Z,4.00
2023-12-08T02:59:04.822Z,7.75
2023-12-08T03:04:08.667Z,6.50
2023-12-08T03:09:12.768Z,7.00
2023-12-08T03:14:16.660Z,6.00
2023-12-08T03:19:21.315Z,6.00
2023-12-08T03:24:25.285Z,7.50
2023-12-08T03:29:29.569Z,6.75
2023-12-08T03:34:33.655Z,6.67
2023-12-08T03:39:38.046Z,5.25
2023-12-08T03:44:41.570Z,5.25
2023-12-08T03:49:45.524Z,5.00
2023-12-08T03:54:51.233Z,4.75
2023-12-08T03:59:55.100Z,6.67
2023-12-08T04:04:59.040Z,4.50
2023-12-08T04:10:02.561Z,10.00
2023-12-08T04:15:07.010Z,8.33
2023-12-08T04:20:11.220Z,9.00
2023-12-08T04:25:15.231Z,9.50
2023-12-08T04:30:19.244Z,9.75
2023-12-08T04:35:24.204Z,7.75
2023-12-08T04:40:28.834Z,12.25
2023-12-08T04:45:33.220Z,11.00
2023-12-08T04:50:37.102Z,11.25
2023-12-08T04:55:41.141Z,11.33
2023-12-08T05:00:44.769Z,9.50
2023-12-08T05:05:49.077Z,9.25
2023-12-08T05:10:54.446Z,9.33
2023-12-08T05:15:58.309Z,8.67
2023-12-08T05:21:03.037Z,8.75
2023-12-08T05:26:07.205Z,9.75
2023-12-08T05:31:10.972Z,11.50
2023-12-08T05:36:14.863Z,8.00
2023-12-08T05:41:18.824Z,11.00
2023-12-08T05:46:22.698Z,9.75
2023-12-08T05:51:27.876Z,12.00
2023-12-08T05:56:33.316Z,8.00
2023-12-08T06:01:37.918Z,8.67
2023-12-08T06:06:44.306Z,9.00
2023-12-08T06:11:49.442Z,9.25
2023-12-08T06:16:55.194Z,7.75
2023-12-08T06:22:01.243Z,9.50
2023-12-08T06:27:05.906Z,8.50
2023-12-08T06:32:11.395Z,10.00
2023-12-08T06:37:16.157Z,8.00
2023-12-08T06:42:20.836Z,7.00
2023-12-08T06:47:24.958Z,7.50
2023-12-08T06:52:31.058Z,8.00
2023-12-08T06:57:36.511Z,7.75
2023-12-08T07:02:41.986Z,8.00
2023-12-08T07:07:47.126Z,8.25
2023-12-08T07:12:53.278Z,8.50
2023-12-08T07:17:57.854Z,8.00
2023-12-08T07:23:03.353Z,11.67
2023-12-08T07:28:09.198Z,7.25
2023-12-08T07:33:13.652Z,8.33
2023-12-08T07:38:18.238Z,9.50
2023-12-08T07:43:23.169Z,9.33
2023-12-08T07:48:30.701Z,9.00
2023-12-08T07:53:34.985Z,9.67
2023-12-08T07:58:39.096Z,8.50
2023-12-08T08:03:43.637Z,10.67
2023-12-08T08:08:48.231Z,8.50
2023-12-08T08:13:54.504Z,9.25
2023-12-08T08:18:58.804Z,6.50
2023-12-08T08:24:05.061Z,7.50
2023-12-08T08:29:12.635Z,7.00
2023-12-08T08:34:20.492Z,9.50
2023-12-08T08:39:25.475Z,8.33
2023-12-08T08:44:32.090Z,10.75
2023-12-08T08:49:36.211Z,7.25
2023-12-08T08:54:41.712Z,8.25
2023-12-08T08:59:46.504Z,8.33
2023-12-08T09:04:50.705Z,9.25
2023-12-08T09:09:55.715Z,7.25
2023-12-08T09:15:00.804Z,7.75
2023-12-08T09:20:09.336Z,10.00
2023-12-08T09:25:15.709Z,9.00
2023-12-08T09:30:21.193Z,6.25
2023-12-08T09:35:26.490Z,7.00
2023-12-08T09:40:38.293Z,6.00
2023-12-08T09:45:44.681Z,6.75
2023-12-08T09:50:51.800Z,5.75
2023-12-08T09:55:56.869Z,10.00
2023-12-08T10:01:02.886Z,10.25
2023-12-08T10:06:09.681Z,9.00
2023-12-08T10:11:20.331Z,7.50
2023-12-08T10:16:26.316Z,9.75
2023-12-08T10:21:30.822Z,7.25
2023-12-08T10:26:37.369Z,7.50
2023-12-08T10:31:43.278Z,6.50
2023-12-08T10:36:47.596Z,6.25
2023-12-08T10:41:57.913Z,9.00
2023-12-08T10:47:02.224Z,7.50
2023-12-08T10:52:08.452Z,7.00
2023-12-08T10:57:14.070Z,6.50
2023-12-08T11:02:22.521Z,6.50
2023-12-08T11:07:34.543Z,7.25
2023-12-08T11:12:44.690Z,6.75
2023-12-08T11:17:51.747Z,8.25
2023-12-08T11:22:57.243Z,12.50
2023-12-08T11:28:26.622Z,11.00
2023-12-08T11:33:37.180Z,11.33
2023-12-08T11:38:41.055Z,14.50
2023-12-08T11:43:48.250Z,12.50
2023-12-08T11:48:54.276Z,11.00
2023-12-08T11:53:58.977Z,12.00
2023-12-08T11:59:07.913Z,14.00
2023-12-08T12:04:16.296Z,13.25
2023-12-08T12:09:22.288Z,14.75
2023-12-08T12:14:28.018Z,13.00
2023-12-08T12:19:32.958Z,14.00
2023-12-08T12:24:37.773Z,12.25
2023-12-08T12:29:42.861Z,12.75
2023-12-08T12:34:46.556Z,13.25
2023-12-08T12:39:50.683Z,8.25
2023-12-08T12:44:55.898Z,11.50
2023-12-08T12:50:10.322Z,15.25
2023-12-08T12:55:28.729Z,13.75
2023-12-08T13:00:44.499Z,11.75
2023-12-08T13:05:59.289Z,12.25
2023-12-08T13:11:04.037Z,14.50
2023-12-08T13:16:08.394Z,12.50
2023-12-08T13:21:12.573Z,12.75
2023-12-08T13:26:17.291Z,11.75
2023-12-08T13:31:20.873Z,15.25
2023-12-08T13:36:25.584Z,13.75
2023-12-08T13:41:29.641Z,13.75
2023-12-08T13:49:40.067Z,13.00
2023-12-08T13:54:43.252Z,12.75
2023-12-08T13:59:46.531Z,12.75
2023-12-08T14:04:49.800Z,13.75
2023-12-08T14:09:52.918Z,14.00
2023-12-08T14:14:56.084Z,17.00
2023-12-08T14:20:00.454Z,13.00
2023-12-08T14:25:03.581Z,12.75
2023-12-08T14:30:09.801Z,13.75
2023-12-08T14:35:19.405Z,14.00
2023-12-08T14:40:29.678Z,15.00
2023-12-08T14:45:33.279Z,16.75
2023-12-08T14:50:37.317Z,14.00
2023-12-08T14:55:40.390Z,14.50
2023-12-08T15:00:44.321Z,13.00
2023-12-08T15:05:47.596Z,11.25
2023-12-08T15:10:50.656Z,12.00
2023-12-08T15:15:53.678Z,11.50
2023-12-08T15:20:56.819Z,12.50
2023-12-08T15:26:03.526Z,12.50
2023-12-08T15:31:06.658Z,9.33
2023-12-08T15:36:10.463Z,10.75
2023-12-08T15:41:13.640Z,10.50
2023-12-08T15:46:16.701Z,9.25
2023-12-08T15:51:20.675Z,9.75
2023-12-08T15:56:23.741Z,10.00
2023-12-08T16:01:26.782Z,11.75
2023-12-08T16:06:29.978Z,10.25
2023-12-08T16:11:33.146Z,10.00
2023-12-08T16:16:36.089Z,11.67
2023-12-08T16:21:39.189Z,9.50
2023-12-08T16:26:42.345Z,9.50
2023-12-08T16:31:45.436Z,10.00
2023-12-08T16:36:50.612Z,10.00
2023-12-08T16:41:55.028Z,10.00
2023-12-08T16:46:58.089Z,10.75
2023-12-08T16:52:01.087Z,9.00
2023-12-08T16:57:04.549Z,7.33
2023-12-08T17:02:10.429Z,12.25
2023-12-08T17:07:14.322Z,10.25
2023-12-08T17:12:17.311Z,6.50
2023-12-08T17:17:22.132Z,10.67
2023-12-08T17:22:28.630Z,7.00
2023-12-08T17:27:32.964Z,10.25
2023-12-08T17:32:36.360Z,11.75
2023-12-08T17:37:41.538Z,6.67
2023-12-08T17:42:44.611Z,8.67
2023-12-08T17:47:49.971Z,7.75
2023-12-08T17:52:53.261Z,11.00
2023-12-08T17:57:56.304Z,6.75
2023-12-08T18:03:01.034Z,8.50
2023-12-08T18:08:04.701Z,8.50
2023-12-08T18:13:08.025Z,9.25
2023-12-08T18:18:11.378Z,8.50
2023-12-08T18:23:15.423Z,11.75
2023-12-08T18:28:57.787Z,8.00
2023-12-08T18:33:45.247Z,8.50
2023-12-08T18:38:49.501Z,9.33
2023-12-08T18:43:52.653Z,6.25
2023-12-08T18:48:59.137Z,9.25
2023-12-08T18:54:02.827Z,10.33
2023-12-08T18:59:06.031Z,8.75
2023-12-08T19:04:09.247Z,8.75
2023-12-08T19:09:12.340Z,9.00
2023-12-08T19:14:15.377Z,8.75
2023-12-08T19:19:18.428Z,7.75
2023-12-08T19:24:21.728Z,8.00
2023-12-08T19:29:24.729Z,7.50
2023-12-08T19:34:27.766Z,8.33
2023-12-08T19:39:30.830Z,7.25
2023-12-08T19:44:34.421Z,8.00
2023-12-08T19:49:37.586Z,7.75
2023-12-08T19:54:40.690Z,8.25
2023-12-08T19:59:43.709Z,7.50
2023-12-08T20:04:47.209Z,8.00
2023-12-08T20:09:50.279Z,8.50
2023-12-08T20:14:53.281Z,8.75
2023-12-08T20:19:56.358Z,10.00
2023-12-08T20:24:59.542Z,9.50
2023-12-08T20:30:02.762Z,10.00
2023-12-08T20:35:05.937Z,7.00
2023-12-08T20:40:09.410Z,7.50
2023-12-08T20:45:12.730Z,8.25
2023-12-08T20:50:17.881Z,6.75
2023-12-08T20:55:22.052Z,8.75
2023-12-08T21:00:25.111Z,6.50
2023-12-08T21:05:31.279Z,7.50
2023-12-08T21:10:34.288Z,9.00
2023-12-08T21:15:37.400Z,7.75
2023-12-08T21:20:40.484Z,9.50
2023-12-08T21:25:43.598Z,8.00
2023-12-08T21:30:46.730Z,8.00
2023-12-08T21:35:49.817Z,8.75
2023-12-08T21:40:53.796Z,7.67
2023-12-08T21:45:56.872Z,11.00
2023-12-08T21:51:00.241Z,7.50
2023-12-08T21:56:03.838Z,9.50
2023-12-08T22:01:07.051Z,6.75
2023-12-08T22:06:10.450Z,8.00
2023-12-08T22:11:13.511Z,8.67
2023-12-08T22:16:16.455Z,8.33
2023-12-08T22:21:19.640Z,7.33
2023-12-08T22:26:22.665Z,6.25
2023-12-08T22:31:25.709Z,8.00
2023-12-08T22:36:29.180Z,9.00
2023-12-08T22:41:32.339Z,8.00
2023-12-08T22:46:35.380Z,8.75
2023-12-08T22:51:48.453Z,6.67
2023-12-08T22:57:00.736Z,6.50
2023-12-08T23:02:03.990Z,8.00
2023-12-08T23:07:07.116Z,6.00
2023-12-08T23:12:10.311Z,8.25
2023-12-08T23:17:13.464Z,6.75
2023-12-08T23:22:16.568Z,6.25
2023-12-08T23:27:20.892Z,7.25
2023-12-08T23:32:23.945Z,8.00
2023-12-08T23:37:27.160Z,6.67
2023-12-08T23:42:31.061Z,5.75
2023-12-08T23:47:34.379Z,6.75
2023-12-08T23:52:37.466Z,9.00
2023-12-08T23:57:40.508Z,7.67
